WLF9634 NZQN-NZCH
Flight info
| Callsign | WLF9634 |
|---|---|
| Flight time | N/A |
| Altitude | 25000 |
| Route | QN Q787 TIMJO Y153 DOPKI |
| Aircraft | B38M/M-SDE1FGHILORVWXY/HB1 |
Departure
| Time | 2026-04-29 15:38 |
|---|---|
| Airport | Queenstown Airport (NZQN) |
Arrival
| Time | N/A |
|---|---|
| Airport | Christchurch International Airport (NZCH) |
| Time | Latitude | Longitude | Altitude | Speed | Heading |
|---|---|---|---|---|---|
| 2026-04-29 15:04 | -45.02106 | 168.73966 | 1163 ft | 0 kts | 206° |
| 2026-04-29 15:29 | -45.02092 | 168.73976 | 1167 ft | 4 kts | 204° |
| 2026-04-29 15:29 | -45.02053 | 168.73989 | 1167 ft | 4 kts | 126° |
| 2026-04-29 15:30 | -45.02047 | 168.73937 | 1164 ft | 0 kts | 94° |
| 2026-04-29 15:34 | -45.02047 | 168.73940 | 1167 ft | 1 kts | 94° |
| 2026-04-29 15:35 | -45.02042 | 168.73974 | 1165 ft | 6 kts | 61° |
| 2026-04-29 15:35 | -45.02042 | 168.73976 | 1166 ft | 0 kts | 58° |
| 2026-04-29 15:35 | -45.02029 | 168.74000 | 1166 ft | 9 kts | 48° |
| 2026-04-29 15:35 | -45.01964 | 168.74036 | 1167 ft | 9 kts | 345° |
| 2026-04-29 15:36 | -45.01950 | 168.73916 | 1171 ft | 20 kts | 256° |
| 2026-04-29 15:36 | -45.01991 | 168.73701 | 1170 ft | 24 kts | 254° |
| 2026-04-29 15:36 | -45.02017 | 168.73556 | 1167 ft | 10 kts | 262° |
| 2026-04-29 15:36 | -45.01994 | 168.73527 | 1165 ft | 4 kts | 19° |
| 2026-04-29 15:37 | -45.01987 | 168.73551 | 1169 ft | 1 kts | 98° |
| 2026-04-29 15:37 | -45.01989 | 168.73562 | 1169 ft | 1 kts | 102° |
| 2026-04-29 15:37 | -45.01992 | 168.73581 | 1169 ft | 4 kts | 101° |
| 2026-04-29 15:37 | -45.01984 | 168.73669 | 1168 ft | 25 kts | 78° |
| 2026-04-29 15:38 | -45.01877 | 168.74352 | 1172 ft | 115 kts | 77° |
| 2026-04-29 15:38 | -45.01646 | 168.75831 | 1197 ft | 188 kts | 77° |
| 2026-04-29 15:38 | -45.01228 | 168.77569 | 2396 ft | 172 kts | 53° |
| 2026-04-29 15:38 | -45.00422 | 168.78716 | 3692 ft | 168 kts | 37° |
| 2026-04-29 15:39 | -44.99237 | 168.79208 | 4292 ft | 191 kts | 0° |
| 2026-04-29 15:39 | -44.97856 | 168.79509 | 4992 ft | 217 kts | 25° |
| 2026-04-29 15:39 | -44.96741 | 168.81109 | 5708 ft | 244 kts | 53° |
| 2026-04-29 15:39 | -44.95718 | 168.83086 | 6614 ft | 252 kts | 50° |
| 2026-04-29 15:40 | -44.94631 | 168.85079 | 7631 ft | 260 kts | 51° |
| 2026-04-29 15:40 | -44.93498 | 168.87142 | 8584 ft | 269 kts | 52° |
| 2026-04-29 15:40 | -44.92341 | 168.89238 | 9604 ft | 273 kts | 52° |
| 2026-04-29 15:40 | -44.91154 | 168.91385 | 10472 ft | 283 kts | 53° |
| 2026-04-29 15:41 | -44.89913 | 168.93614 | 11289 ft | 292 kts | 53° |
| 2026-04-29 15:41 | -44.88647 | 168.95899 | 12174 ft | 302 kts | 53° |
| 2026-04-29 15:41 | -44.87312 | 168.98306 | 12714 ft | 322 kts | 54° |
| 2026-04-29 15:41 | -44.85882 | 169.00803 | 13188 ft | 341 kts | 42° |
| 2026-04-29 15:42 | -44.83858 | 169.02530 | 13938 ft | 336 kts | 354° |
| 2026-04-29 15:42 | -44.81680 | 169.01534 | 13594 ft | 359 kts | 323° |
| 2026-04-29 15:42 | -44.79522 | 168.99712 | 14300 ft | 350 kts | 313° |
| 2026-04-29 15:42 | -44.77784 | 168.97400 | 15470 ft | 334 kts | 291° |
| 2026-04-29 15:43 | -44.77727 | 168.94616 | 15834 ft | 299 kts | 220° |
| 2026-04-29 15:43 | -44.79533 | 168.92633 | 15070 ft | 343 kts | 211° |
| 2026-04-29 15:43 | -44.81662 | 168.91474 | 16539 ft | 326 kts | 181° |
| 2026-04-29 15:43 | -44.83528 | 168.93017 | 16994 ft | 365 kts | 100° |
| 2026-04-29 15:44 | -44.82639 | 168.96763 | 13819 ft | 480 kts | 52° |
| 2026-04-29 15:44 | -44.80482 | 168.99626 | 16060 ft | 376 kts | 28° |
| 2026-04-29 15:44 | -44.78224 | 169.01110 | 17360 ft | 361 kts | 358° |
| 2026-04-29 15:45 | -44.77235 | 169.01003 | 17457 ft | 347 kts | 324° |
| 2026-04-29 15:45 | -44.76431 | 168.98374 | 13946 ft | 357 kts | 252° |
| 2026-04-29 15:45 | -44.76737 | 168.96197 | 12542 ft | 420 kts | 252° |
| 2026-04-29 15:47 | -44.76772 | 168.95926 | 12594 ft | 415 kts | 251° |
| 2026-04-29 15:47 | -44.77019 | 168.92518 | 15431 ft | 302 kts | 264° |
| 2026-04-29 15:48 | -44.76920 | 168.90323 | 17085 ft | 285 kts | 258° |